Time;durP1;ratioP1;P1;durP2;ratioP2;P2;SDS_P1;SDS_P2;PMS_P1;PMS_P2;Temp;Humidity;BMP_temperature;BMP_pressure;BME280_temperature;BME280_humidity;BME280_pressure;Samples;Min_cycle;Max_cycle;Signal;HPM_P1;HPM_P2
2023/07/11 00:02:09;;;;;;;6.72;3.95;;;23.60;1.00;;;;;;7387869;19;20021;-69
2023/07/11 00:04:39;;;;;;;5.80;3.97;;;23.60;1.00;;;;;;7391945;19;20015;-70
2023/07/11 00:07:12;;;;;;;6.82;4.03;;;23.40;1.00;;;;;;7387130;19;20027;-70
2023/07/11 00:09:42;;;;;;;7.20;3.88;;;23.40;1.00;;;;;;7391997;19;20042;-70
2023/07/11 00:12:12;;;;;;;5.50;4.00;;;23.40;1.00;;;;;;7388756;19;20021;-70
2023/07/11 00:14:42;;;;;;;6.95;4.32;;;23.40;1.00;;;;;;7392211;19;20007;-70
2023/07/11 00:17:12;;;;;;;11.52;4.18;;;23.40;1.00;;;;;;7389232;19;20070;-70
2023/07/11 00:19:49;;;;;;;7.32;4.15;;;23.40;1.00;;;;;;7388431;19;20035;-70
2023/07/11 00:22:23;;;;;;;7.10;4.13;;;23.40;1.00;;;;;;7388095;19;20018;-70
2023/07/11 00:24:54;;;;;;;5.88;4.35;;;23.40;1.00;;;;;;7390567;19;20018;-70
2023/07/11 00:27:24;;;;;;;5.88;4.25;;;23.40;1.00;;;;;;7389787;19;20035;-70
2023/07/11 00:29:54;;;;;;;6.47;4.40;;;23.30;1.00;;;;;;7390861;19;20052;-69
2023/07/11 00:32:24;;;;;;;6.97;4.50;;;23.20;1.00;;;;;;7385658;19;20010;-70
2023/07/11 00:34:54;;;;;;;6.47;4.32;;;23.20;1.00;;;;;;7391812;19;20018;-69
2023/07/11 00:37:27;;;;;;;8.13;4.20;;;23.10;1.00;;;;;;7389717;19;20018;-69
2023/07/11 00:39:57;;;;;;;7.65;4.35;;;23.20;1.00;;;;;;7387145;19;20086;-69
2023/07/11 00:42:27;;;;;;;7.15;4.25;;;23.10;1.00;;;;;;7387350;19;20078;-69
2023/07/11 00:44:59;;;;;;;6.50;3.83;;;23.10;1.00;;;;;;7390298;19;20098;-69
2023/07/11 00:47:30;;;;;;;7.10;4.28;;;23.00;1.00;;;;;;7388041;19;20015;-69
2023/07/11 00:50:04;;;;;;;8.30;4.07;;;23.00;1.00;;;;;;7387384;19;20028;-68
2023/07/11 00:52:38;;;;;;;5.85;4.10;;;22.90;1.00;;;;;;7388451;19;20526;-69
2023/07/11 00:55:12;;;;;;;6.57;5.00;;;22.90;1.00;;;;;;7391834;19;20043;-69
2023/07/11 00:57:44;;;;;;;6.15;4.03;;;23.00;1.00;;;;;;7388968;19;20015;-68
2023/07/11 01:00:16;;;;;;;6.10;3.75;;;22.40;1.00;;;;;;7390051;19;20560;-68
2023/07/11 01:02:46;;;;;;;4.80;3.70;;;22.10;1.00;;;;;;7391776;19;20011;-69
2023/07/11 01:05:16;;;;;;;5.93;3.92;;;21.90;1.00;;;;;;7391736;19;20006;-69
2023/07/11 01:07:49;;;;;;;5.65;3.75;;;21.80;1.00;;;;;;7390273;19;20398;-69
2023/07/11 01:10:19;;;;;;;8.57;4.15;;;21.90;1.00;;;;;;7386523;19;20022;-69
2023/07/11 01:12:50;;;;;;;8.40;4.20;;;22.00;1.00;;;;;;7386877;19;20011;-69
2023/07/11 01:15:20;;;;;;;8.18;4.30;;;22.20;1.00;;;;;;7387432;19;20070;-70
2023/07/11 01:17:50;;;;;;;5.68;3.75;;;22.00;1.00;;;;;;7387847;19;20010;-70
2023/07/11 01:20:22;;;;;;;6.30;4.13;;;22.00;1.00;;;;;;7386608;19;20147;-70
2023/07/11 01:22:55;;;;;;;6.82;4.10;;;22.00;1.00;;;;;;7385977;19;20032;-69
2023/07/11 01:25:26;;;;;;;5.68;4.20;;;21.90;1.00;;;;;;7386837;19;20015;-68
2023/07/11 01:27:55;;;;;;;7.20;4.30;;;21.90;1.00;;;;;;7387805;19;20040;-69
2023/07/11 01:30:26;;;;;;;6.55;4.30;;;22.00;1.00;;;;;;7386042;19;20018;-69
2023/07/11 01:32:56;;;;;;;7.72;4.32;;;22.00;1.00;;;;;;7387032;19;20014;-69
2023/07/11 01:35:26;;;;;;;7.35;5.20;;;22.00;1.00;;;;;;7386162;19;20015;-69
2023/07/11 01:37:59;;;;;;;8.88;5.53;;;22.00;1.00;;;;;;7386710;19;20097;-69
2023/07/11 01:40:29;;;;;;;8.65;6.40;;;22.00;1.00;;;;;;7385679;19;20021;-68
2023/07/11 01:42:59;;;;;;;9.00;5.55;;;21.90;1.00;;;;;;7390629;19;20342;-69
2023/07/11 01:45:29;;;;;;;10.15;6.32;;;21.80;1.00;;;;;;7395737;19;20097;-69
2023/07/11 01:47:59;;;;;;;8.73;5.75;;;21.80;1.00;;;;;;7393763;19;20015;-69
2023/07/11 01:50:29;;;;;;;9.10;6.07;;;21.90;1.00;;;;;;7391333;19;20047;-69
2023/07/11 01:53:01;;;;;;;10.73;6.07;;;21.90;1.00;;;;;;7395149;19;20022;-69
2023/07/11 01:55:31;;;;;;;10.05;5.95;;;21.90;1.00;;;;;;7397448;19;20019;-69
2023/07/11 01:58:01;;;;;;;9.80;6.00;;;21.90;1.00;;;;;;7391200;19;20019;-70
2023/07/11 02:00:31;;;;;;;7.72;6.18;;;22.00;1.00;;;;;;7393002;19;20018;-70
2023/07/11 02:03:01;;;;;;;9.73;7.05;;;21.90;1.00;;;;;;7395843;19;20521;-70
2023/07/11 02:05:31;;;;;;;10.50;6.30;;;21.80;1.00;;;;;;7391378;19;20101;-70
2023/07/11 02:08:04;;;;;;;10.23;6.65;;;21.90;1.00;;;;;;7393136;19;20039;-70
2023/07/11 02:10:34;;;;;;;9.88;6.22;;;21.90;1.00;;;;;;7390164;19;20026;-70
2023/07/11 02:13:04;;;;;;;9.70;6.55;;;21.80;1.00;;;;;;7389757;19;20014;-70
2023/07/11 02:15:34;;;;;;;9.45;6.15;;;21.70;1.00;;;;;;7391228;19;20023;-70
2023/07/11 02:18:04;;;;;;;9.50;6.53;;;21.60;1.00;;;;;;7393072;19;20482;-70
2023/07/11 02:20:34;;;;;;;10.60;6.90;;;21.70;1.00;;;;;;7394180;19;20117;-70
2023/07/11 02:23:07;;;;;;;9.32;6.70;;;21.70;1.00;;;;;;7389737;19;20375;-69
2023/07/11 02:25:37;;;;;;;10.98;6.75;;;21.60;1.00;;;;;;7389515;19;20030;-70
2023/07/11 02:28:08;;;;;;;9.85;6.45;;;21.70;1.00;;;;;;7392526;19;20703;-70
2023/07/11 02:30:38;;;;;;;8.90;6.25;;;21.70;1.00;;;;;;7390089;19;20084;-70
2023/07/11 02:33:08;;;;;;;11.30;5.85;;;21.60;1.00;;;;;;7389725;19;20474;-70
2023/07/11 02:35:38;;;;;;;9.15;5.80;;;21.70;1.00;;;;;;7390893;19;20066;-69
2023/07/11 02:38:10;;;;;;;6.95;5.05;;;21.60;1.00;;;;;;7391324;19;20038;-69
2023/07/11 02:40:40;;;;;;;8.90;5.80;;;21.60;1.00;;;;;;7388293;19;20031;-69
2023/07/11 02:43:10;;;;;;;9.90;5.25;;;21.70;1.00;;;;;;7390264;19;20466;-70
2023/07/11 02:45:40;;;;;;;8.93;5.18;;;21.70;1.00;;;;;;7392499;19;20090;-70
2023/07/11 02:48:10;;;;;;;7.07;5.05;;;21.70;1.00;;;;;;7389121;19;20018;-70
2023/07/11 02:50:40;;;;;;;8.45;4.78;;;21.60;1.00;;;;;;7391802;19;20375;-69
2023/07/11 02:53:14;;;;;;;6.97;5.15;;;21.60;1.00;;;;;;7386022;19;20018;-69
2023/07/11 02:55:44;;;;;;;8.32;5.47;;;21.60;1.00;;;;;;7390070;19;20018;-68
2023/07/11 02:58:14;;;;;;;8.35;5.20;;;21.50;1.00;;;;;;7386215;19;20011;-69
2023/07/11 03:00:49;;;;;;;9.65;5.55;;;21.40;1.00;;;;;;7387761;19;20142;-69
2023/07/11 03:03:19;;;;;;;8.13;5.20;;;21.40;1.00;;;;;;7389046;19;20022;-70
2023/07/11 03:05:50;;;;;;;6.75;4.88;;;21.50;1.00;;;;;;7391685;19;20377;-69
2023/07/11 03:08:23;;;;;;;7.32;5.50;;;21.50;1.00;;;;;;7389242;19;20014;-69
2023/07/11 03:10:53;;;;;;;8.48;5.18;;;21.50;1.00;;;;;;7390781;19;20085;-69
2023/07/11 03:13:23;;;;;;;8.23;5.00;;;21.40;1.00;;;;;;7391760;19;20466;-69
2023/07/11 03:15:52;;;;;;;11.80;5.63;;;21.30;1.00;;;;;;7389714;19;20013;-68
2023/07/11 03:18:22;;;;;;;7.30;5.03;;;21.30;1.00;;;;;;7388863;19;20406;-69
2023/07/11 03:20:52;;;;;;;7.68;5.20;;;21.20;1.00;;;;;;7388286;19;20014;-69
2023/07/11 03:23:25;;;;;;;7.20;4.65;;;21.10;1.00;;;;;;7388320;19;20101;-69
2023/07/11 03:25:55;;;;;;;6.30;4.60;;;20.90;1.00;;;;;;7388719;19;20048;-69
2023/07/11 03:28:25;;;;;;;8.90;5.25;;;20.70;1.00;;;;;;7388826;19;20028;-69
2023/07/11 03:30:55;;;;;;;8.65;4.63;;;20.50;1.00;;;;;;7390780;19;20381;-69
2023/07/11 03:33:25;;;;;;;7.57;5.40;;;20.50;1.00;;;;;;7390491;19;20029;-68
2023/07/11 03:35:55;;;;;;;7.25;4.95;;;20.70;1.00;;;;;;7392597;19;20517;-70
2023/07/11 03:38:28;;;;;;;7.13;5.18;;;21.00;1.00;;;;;;7386776;19;20385;-69
2023/07/11 03:40:58;;;;;;;19.10;8.05;;;21.00;1.00;;;;;;7386649;19;20495;-69
2023/07/11 03:43:28;;;;;;;6.35;4.78;;;21.10;1.00;;;;;;7387856;19;20023;-69
2023/07/11 03:45:58;;;;;;;8.32;5.88;;;20.80;1.00;;;;;;7389249;19;20366;-69
2023/07/11 03:48:28;;;;;;;12.05;5.40;;;20.80;1.00;;;;;;7392861;19;20023;-69
2023/07/11 03:50:58;;;;;;;7.68;5.22;;;21.10;1.00;;;;;;7386434;19;20042;-69
2023/07/11 03:53:30;;;;;;;7.18;5.47;;;21.00;1.00;;;;;;7389234;19;20361;-69
2023/07/11 03:56:00;;;;;;;6.95;4.90;;;20.60;1.00;;;;;;7386367;19;20043;-69
2023/07/11 03:58:30;;;;;;;6.47;4.63;;;20.80;1.00;;;;;;7386329;19;20014;-69
2023/07/11 04:01:00;;;;;;;6.45;5.07;;;20.90;1.00;;;;;;7388347;19;20096;-69
2023/07/11 04:03:30;;;;;;;6.28;4.57;;;20.80;1.00;;;;;;7388485;19;20014;-69
2023/07/11 04:06:00;;;;;;;5.35;4.57;;;20.90;1.00;;;;;;7386508;19;20029;-68
2023/07/11 04:08:33;;;;;;;7.63;4.95;;;21.30;1.00;;;;;;7386989;19;20015;-69
2023/07/11 04:11:03;;;;;;;7.47;4.93;;;21.40;1.00;;;;;;7384339;19;20019;-70
2023/07/11 04:13:33;;;;;;;6.95;5.45;;;22.10;1.00;;;;;;7392292;19;20026;-69
2023/07/11 04:16:03;;;;;;;8.07;5.38;;;22.40;1.00;;;;;;7388654;19;20014;-69
2023/07/11 04:18:33;;;;;;;9.52;4.95;;;22.60;1.00;;;;;;7388882;19;20085;-69
2023/07/11 04:21:03;;;;;;;6.60;4.82;;;22.90;1.00;;;;;;7388772;19;20023;-69
2023/07/11 04:23:35;;;;;;;6.57;4.53;;;23.20;1.00;;;;;;7388421;19;20022;-69
2023/07/11 04:26:05;;;;;;;10.00;4.80;;;23.70;1.00;;;;;;7389163;19;20014;-69
2023/07/11 04:28:36;;;;;;;8.00;4.68;;;23.90;1.00;;;;;;7388490;19;20094;-69
2023/07/11 04:31:05;;;;;;;7.20;5.10;;;23.70;1.00;;;;;;7387449;19;20583;-71
2023/07/11 04:33:35;;;;;;;8.30;5.32;;;24.30;1.00;;;;;;7387977;19;20024;-69
2023/07/11 04:36:13;;;;;;;8.30;4.93;;;24.20;1.00;;;;;;7388404;19;20089;-69
2023/07/11 04:38:47;;;;;;;6.55;4.57;;;24.70;1.00;;;;;;7387928;19;20027;-70
2023/07/11 04:41:16;;;;;;;7.57;5.33;;;24.70;1.00;;;;;;7386871;19;20015;-71
2023/07/11 04:43:46;;;;;;;6.68;4.93;;;24.30;1.00;;;;;;7387784;19;20288;-69
2023/07/11 04:46:16;;;;;;;8.73;5.35;;;24.70;1.00;;;;;;7391278;19;20549;-71
2023/07/11 04:48:48;;;;;;;6.70;4.88;;;24.80;1.00;;;;;;7386760;19;20022;-70
2023/07/11 04:51:18;;;;;;;8.30;5.00;;;24.50;1.00;;;;;;7386448;19;20557;-69
2023/07/11 04:53:51;;;;;;;9.35;5.85;;;25.00;1.00;;;;;;7387333;19;20011;-71
2023/07/11 04:56:20;;;;;;;10.50;5.65;;;24.80;1.00;;;;;;7387667;19;20014;-69
2023/07/11 04:58:50;;;;;;;9.20;5.30;;;25.20;1.00;;;;;;7388325;19;20021;-69
2023/07/11 05:01:21;;;;;;;7.85;4.68;;;25.30;1.00;;;;;;7387001;19;20424;-70
2023/07/11 05:03:52;;;;;;;6.90;4.88;;;25.60;1.00;;;;;;7387239;19;20018;-70
2023/07/11 05:06:22;;;;;;;6.75;5.10;;;25.60;1.00;;;;;;7384999;19;20035;-69
2023/07/11 05:08:55;;;;;;;9.85;5.07;;;25.70;1.00;;;;;;7386135;19;20021;-70
2023/07/11 05:11:25;;;;;;;9.77;5.28;;;25.90;1.00;;;;;;7386159;19;20102;-70
2023/07/11 05:13:55;;;;;;;7.10;5.22;;;25.80;1.00;;;;;;7386629;19;20089;-70
2023/07/11 05:16:28;;;;;;;9.80;5.55;;;25.70;1.00;;;;;;7386716;19;20482;-69
2023/07/11 05:18:59;;;;;;;6.88;5.70;;;26.00;1.00;;;;;;7394984;19;20007;-69
2023/07/11 05:21:29;;;;;;;7.00;5.43;;;26.30;1.00;;;;;;7391746;19;20418;-71
2023/07/11 05:24:04;;;;;;;10.70;4.97;;;26.30;1.00;;;;;;7393541;19;20013;-70
2023/07/11 05:26:34;;;;;;;10.70;5.85;;;26.40;1.00;;;;;;7391501;19;20479;-70
2023/07/11 05:29:06;;;;;;;8.98;5.57;;;26.00;1.00;;;;;;7393841;19;20011;-70
2023/07/11 05:31:36;;;;;;;8.98;6.65;;;26.40;1.00;;;;;;7391625;19;20040;-70
2023/07/11 05:34:06;;;;;;;10.00;6.18;;;25.60;1.00;;;;;;7394085;19;20027;-68
2023/07/11 05:36:37;;;;;;;8.60;6.30;;;26.30;1.00;;;;;;7393882;19;20014;-69
2023/07/11 05:39:12;;;;;;;12.02;5.80;;;26.30;1.00;;;;;;7393172;19;20014;-69
2023/07/11 05:41:45;;;;;;;9.43;5.90;;;26.30;1.00;;;;;;7391214;19;20015;-69
2023/07/11 05:44:16;;;;;;;11.77;6.20;;;26.10;1.00;;;;;;7392635;19;20018;-69
2023/07/11 05:46:46;;;;;;;8.40;5.75;;;26.10;1.00;;;;;;7393717;19;20042;-70
2023/07/11 05:49:18;;;;;;;10.75;5.97;;;26.00;1.00;;;;;;7393374;19;20098;-69
2023/07/11 05:51:47;;;;;;;10.35;5.10;;;26.40;1.00;;;;;;7392582;19;20048;-70
2023/07/11 05:54:20;;;;;;;12.10;5.32;;;27.10;1.00;;;;;;7389243;19;20438;-70
2023/07/11 05:56:50;;;;;;;9.40;5.35;;;26.80;1.00;;;;;;7395013;19;20020;-70
2023/07/11 05:59:20;;;;;;;7.82;5.57;;;27.30;1.00;;;;;;7390625;19;20300;-69
2023/07/11 06:01:51;;;;;;;7.55;5.10;;;27.20;1.00;;;;;;7392936;19;20024;-69
2023/07/11 06:04:21;;;;;;;8.50;5.95;;;26.70;1.00;;;;;;7391922;19;20086;-68
2023/07/11 06:06:51;;;;;;;8.43;5.47;;;26.80;1.00;;;;;;7393581;19;20018;-68
2023/07/11 06:09:24;;;;;;;9.20;5.47;;;26.60;1.00;;;;;;7395875;19;20010;-68
2023/07/11 06:11:54;;;;;;;5.78;4.90;;;27.00;1.00;;;;;;7396510;19;20038;-67
2023/07/11 06:14:25;;;;;;;6.65;5.15;;;27.20;1.00;;;;;;7392690;19;20010;-68
2023/07/11 06:16:55;;;;;;;10.07;5.10;;;26.80;1.00;;;;;;7392484;19;20196;-68
2023/07/11 06:19:25;;;;;;;8.63;4.82;;;25.90;1.00;;;;;;7392128;19;20014;-68
2023/07/11 06:21:55;;;;;;;8.20;4.85;;;26.00;1.00;;;;;;7392395;19;20489;-68
2023/07/11 06:24:28;;;;;;;7.97;5.07;;;26.20;1.00;;;;;;7392513;19;20070;-68
2023/07/11 06:26:58;;;;;;;8.45;5.20;;;26.00;1.00;;;;;;7390243;19;20019;-68
2023/07/11 06:29:30;;;;;;;7.72;4.47;;;26.10;1.00;;;;;;7388500;19;20010;-68
2023/07/11 06:32:00;;;;;;;7.90;4.80;;;26.50;1.00;;;;;;7392360;19;20088;-69
2023/07/11 06:34:30;;;;;;;7.18;4.68;;;27.10;1.00;;;;;;7391498;19;20016;-68
2023/07/11 06:37:00;;;;;;;6.20;4.28;;;28.10;1.00;;;;;;7392207;19;20018;-68
2023/07/11 06:39:33;;;;;;;7.50;4.32;;;27.90;1.00;;;;;;7391458;19;20067;-68
2023/07/11 06:42:02;;;;;;;8.35;3.90;;;28.30;1.00;;;;;;7391802;19;20094;-68
2023/07/11 06:44:33;;;;;;;5.50;4.57;;;28.70;1.00;;;;;;7391149;19;20113;-68
2023/07/11 06:47:03;;;;;;;6.70;4.47;;;28.50;1.00;;;;;;7392686;19;20550;-69
2023/07/11 06:49:33;;;;;;;6.43;4.85;;;27.90;1.00;;;;;;7391203;19;20508;-68
2023/07/11 06:52:03;;;;;;;7.78;4.03;;;28.10;1.00;;;;;;7391753;19;20018;-69
2023/07/11 06:54:35;;;;;;;7.88;4.65;;;27.80;1.00;;;;;;7390778;19;20470;-68
2023/07/11 06:57:06;;;;;;;6.47;4.57;;;27.70;1.00;;;;;;7391421;19;20043;-67
2023/07/11 06:59:36;;;;;;;9.25;4.20;;;27.20;1.00;;;;;;7390513;19;20014;-67
2023/07/11 07:02:07;;;;;;;5.30;3.90;;;27.10;1.00;;;;;;7391301;19;20022;-67
2023/07/11 07:04:37;;;;;;;7.40;4.43;;;27.30;1.00;;;;;;7391046;19;20021;-68
2023/07/11 07:07:08;;;;;;;7.68;3.90;;;27.30;1.00;;;;;;7389572;19;20358;-68
2023/07/11 07:09:40;;;;;;;8.00;4.60;;;27.30;1.00;;;;;;7393024;19;20050;-68
2023/07/11 07:12:10;;;;;;;8.48;5.00;;;27.40;1.00;;;;;;7393742;19;20011;-68
2023/07/11 07:14:40;;;;;;;7.45;4.40;;;27.20;1.00;;;;;;7394187;19;20022;-68
2023/07/11 07:17:10;;;;;;;6.35;3.78;;;27.20;1.00;;;;;;7390625;19;20021;-69
2023/07/11 07:19:41;;;;;;;7.30;3.97;;;27.50;1.00;;;;;;7390442;19;20034;-68
2023/07/11 07:22:11;;;;;;;6.35;4.40;;;27.90;1.00;;;;;;7390643;19;20011;-68
2023/07/11 07:24:44;;;;;;;7.95;4.32;;;28.20;1.00;;;;;;7390361;19;20028;-69
2023/07/11 07:27:13;;;;;;;7.57;4.32;;;28.40;1.00;;;;;;7389073;19;20098;-69
2023/07/11 07:29:57;;;;;;;6.93;3.73;;;28.40;1.00;;;;;;7389577;19;20014;-68
2023/07/11 07:32:27;;;;;;;10.80;7.53;;;28.50;1.00;;;;;;7390243;19;20264;-69
2023/07/11 07:34:57;;;;;;;5.47;4.10;;;28.50;1.00;;;;;;7389332;19;20455;-69
2023/07/11 07:37:27;;;;;;;10.65;4.47;;;28.30;1.00;;;;;;7390791;19;20010;-68
2023/07/11 07:39:59;;;;;;;12.05;4.40;;;28.70;1.00;;;;;;7388748;19;20022;-68
2023/07/11 07:42:29;;;;;;;6.40;3.90;;;28.60;1.00;;;;;;7389929;19;20022;-67
2023/07/11 07:44:59;;;;;;;10.40;4.50;;;28.80;1.00;;;;;;7390264;19;20014;-68
2023/07/11 07:47:29;;;;;;;6.20;4.20;;;29.20;1.00;;;;;;7388520;19;20094;-67
2023/07/11 07:49:59;;;;;;;6.75;3.90;;;28.80;1.00;;;;;;7388777;19;20047;-68
2023/07/11 07:52:30;;;;;;;7.28;4.30;;;29.20;1.00;;;;;;7388944;19;20011;-67
2023/07/11 07:55:02;;;;;;;5.85;4.30;;;29.30;1.00;;;;;;7389350;19;20019;-69
2023/07/11 07:57:32;;;;;;;5.68;3.72;;;29.20;1.00;;;;;;7390809;19;20014;-68
2023/07/11 08:00:02;;;;;;;5.10;3.88;;;29.30;1.00;;;;;;7391405;19;20014;-68
2023/07/11 08:02:35;;;;;;;5.47;4.03;;;29.20;1.00;;;;;;7393086;19;20010;-69
2023/07/11 08:05:06;;;;;;;7.95;4.38;;;28.40;1.00;;;;;;7389522;19;20014;-70
2023/07/11 08:07:36;;;;;;;5.25;3.88;;;29.20;1.00;;;;;;7387710;19;20518;-69
2023/07/11 08:10:12;;;;;;;8.15;4.13;;;29.30;1.00;;;;;;7384030;19;20042;-69
2023/07/11 08:12:42;;;;;;;10.57;4.20;;;29.50;1.00;;;;;;7384868;19;20031;-69
2023/07/11 08:15:13;;;;;;;5.22;4.18;;;29.90;1.00;;;;;;7384456;19;20031;-68
2023/07/11 08:17:45;;;;;;;7.22;4.22;;;30.00;1.00;;;;;;7384702;19;20010;-69
2023/07/11 08:20:16;;;;;;;7.03;4.18;;;29.00;1.00;;;;;;7384342;19;20052;-70
2023/07/11 08:22:46;;;;;;;5.18;4.10;;;29.40;1.00;;;;;;7387219;19;20025;-70
2023/07/11 08:25:19;;;;;;;7.72;4.43;;;29.40;1.00;;;;;;7388721;19;20014;-70
2023/07/11 08:27:49;;;;;;;5.05;4.45;;;29.80;1.00;;;;;;7387430;19;20111;-71
2023/07/11 08:30:19;;;;;;;7.55;4.13;;;29.70;1.00;;;;;;7387700;19;20358;-72
2023/07/11 08:32:49;;;;;;;4.70;4.15;;;30.10;1.00;;;;;;7389413;19;20021;-70
2023/07/11 08:35:19;;;;;;;5.28;3.85;;;30.20;1.00;;;;;;7389129;19;20077;-72
2023/07/11 08:37:49;;;;;;;6.95;4.07;;;30.60;1.00;;;;;;7387547;19;20015;-70
2023/07/11 08:40:25;;;;;;;8.80;4.50;;;30.40;1.00;;;;;;7387207;19;20025;-70
2023/07/11 08:43:17;;;;;;;6.28;3.80;;;30.60;1.00;;;;;;7388678;19;20014;-70
2023/07/11 08:45:53;;;;;;;5.18;4.50;;;31.00;1.00;;;;;;7391328;19;20017;-70
2023/07/11 08:48:44;;;;;;;6.50;4.15;;;31.00;1.00;;;;;;7387414;19;20078;-70
2023/07/11 08:51:18;;;;;;;;;;;30.60;1.00;;;;;;7385963;19;20329;-71
2023/07/11 08:53:52;;;;;;;6.85;4.53;;;30.80;1.00;;;;;;7387803;19;20324;-70
2023/07/11 08:56:36;;;;;;;6.47;4.38;;;30.90;1.00;;;;;;7388347;19;20027;-71
2023/07/11 08:59:14;;;;;;;6.10;4.90;;;31.10;1.00;;;;;;7387984;19;20102;-69
2023/07/11 09:01:49;;;;;;;5.85;4.40;;;31.00;1.00;;;;;;7388090;19;20018;-70
2023/07/11 09:04:23;;;;;;;6.65;4.35;;;31.30;1.00;;;;;;7387653;19;20062;-70
2023/07/11 09:06:57;;;;;;;6.53;4.53;;;31.60;1.00;;;;;;7385944;19;20015;-70
2023/07/11 09:09:28;;;;;;;8.38;4.30;;;31.40;1.00;;;;;;7387818;19;20014;-70
2023/07/11 09:12:09;;;;;;;6.60;4.32;;;31.30;1.00;;;;;;7387196;19;20494;-71
2023/07/11 09:14:52;;;;;;;6.90;4.43;;;31.40;1.00;;;;;;7387388;19;20011;-70
2023/07/11 09:17:29;;;;;;;8.07;4.72;;;31.60;1.00;;;;;;7386239;19;20052;-71
2023/07/11 09:20:16;;;;;;;5.82;4.13;;;31.60;1.00;;;;;;7386501;19;20019;-71
2023/07/11 09:22:54;;;;;;;6.63;4.68;;;31.50;1.00;;;;;;7387565;19;20014;-70
2023/07/11 09:25:29;;;;;;;5.28;4.63;;;31.50;1.00;;;;;;7387003;19;20478;-70
2023/07/11 09:28:07;;;;;;;10.10;4.75;;;31.80;1.00;;;;;;7386526;19;20027;-70
2023/07/11 09:30:42;;;;;;;7.07;4.78;;;31.00;1.00;;;;;;7386930;19;20078;-70
2023/07/11 09:33:17;;;;;;;7.75;4.47;;;31.10;1.00;;;;;;7387335;19;20019;-70
2023/07/11 09:35:50;;;;;;;8.55;4.80;;;31.40;1.00;;;;;;7387305;19;20029;-70
2023/07/11 09:38:27;;;;;;;8.68;4.45;;;31.40;1.00;;;;;;7387007;19;20019;-71
2023/07/11 09:41:03;;;;;;;9.60;4.93;;;31.70;1.00;;;;;;7385427;19;20090;-71
2023/07/11 09:43:36;;;;;;;7.20;4.95;;;31.90;1.00;;;;;;7387374;19;20006;-70
2023/07/11 09:46:13;;;;;;;6.35;4.95;;;31.70;1.00;;;;;;7389921;19;20010;-70
2023/07/11 09:48:46;;;;;;;7.45;4.80;;;31.30;1.00;;;;;;7384977;19;20038;-71
2023/07/11 09:51:26;;;;;;;7.47;5.18;;;31.40;1.00;;;;;;7383191;19;20082;-71
2023/07/11 09:53:57;;;;;;;5.78;4.80;;;31.60;1.00;;;;;;7386324;19;20015;-70
2023/07/11 09:56:28;;;;;;;17.75;5.45;;;31.30;1.00;;;;;;7385923;19;20358;-70
2023/07/11 09:59:03;;;;;;;8.65;5.53;;;31.30;1.00;;;;;;7386248;19;20399;-70
2023/07/11 10:01:36;;;;;;;6.25;4.63;;;31.90;1.00;;;;;;7384518;19;20047;-71
2023/07/11 10:04:09;;;;;;;10.15;5.15;;;32.30;1.00;;;;;;7391532;19;20304;-71
2023/07/11 10:06:44;;;;;;;9.35;5.03;;;32.50;1.00;;;;;;7393689;19;20010;-70
2023/07/11 10:09:19;;;;;;;7.35;5.05;;;32.70;1.00;;;;;;7391232;19;20014;-71
2023/07/11 10:11:54;;;;;;;10.05;4.68;;;32.80;1.00;;;;;;7391812;19;20407;-70
2023/07/11 10:14:30;;;;;;;6.85;5.47;;;32.40;1.00;;;;;;7393473;19;20051;-70
2023/07/11 10:17:01;;;;;;;15.55;5.30;;;32.20;1.00;;;;;;7392852;19;20015;-70
2023/07/11 10:19:31;;;;;;;7.82;5.47;;;32.60;1.00;;;;;;7393007;19;20018;-71
2023/07/11 10:22:02;;;;;;;9.70;5.35;;;32.70;1.00;;;;;;7393128;19;20010;-70
2023/07/11 10:24:40;;;;;;;8.52;5.40;;;32.70;1.00;;;;;;7393125;19;20082;-71
2023/07/11 10:27:16;;;;;;;6.95;5.15;;;32.80;1.00;;;;;;7391356;19;20046;-70
2023/07/11 10:29:52;;;;;;;8.35;5.35;;;32.40;1.00;;;;;;7392555;19;20031;-71
2023/07/11 10:32:35;;;;;;;6.88;5.03;;;32.40;1.00;;;;;;7392523;19;20482;-69
2023/07/11 10:35:11;;;;;;;8.50;4.97;;;32.80;1.00;;;;;;7395537;19;20011;-71
2023/07/11 10:37:45;;;;;;;7.57;5.50;;;33.00;1.00;;;;;;7390700;19;20018;-72
2023/07/11 10:40:20;;;;;;;7.18;5.30;;;32.70;1.00;;;;;;7391728;19;20027;-72
2023/07/11 10:42:58;;;;;;;10.13;5.38;;;32.70;1.00;;;;;;7392937;19;20081;-71
2023/07/11 10:45:34;;;;;;;8.68;4.82;;;32.50;1.00;;;;;;7394787;19;20015;-71
2023/07/11 10:48:13;;;;;;;6.75;4.95;;;32.60;1.00;;;;;;7391327;19;20078;-70
2023/07/11 10:50:48;;;;;;;8.05;5.03;;;33.30;1.00;;;;;;7391280;19;20038;-70
2023/07/11 10:53:25;;;;;;;6.32;5.20;;;33.10;1.00;;;;;;7392599;19;20074;-71
2023/07/11 10:56:01;;;;;;;6.32;5.18;;;33.30;1.00;;;;;;7392825;19;20038;-70
2023/07/11 10:58:32;;;;;;;8.52;5.03;;;33.30;1.00;;;;;;7389774;19;20018;-71
2023/07/11 11:01:16;;;;;;;6.65;5.05;;;33.00;1.00;;;;;;7389773;19;20527;-71
2023/07/11 11:03:49;;;;;;;7.25;4.70;;;33.00;1.00;;;;;;7390178;19;20025;-70
2023/07/11 11:06:36;;;;;;;6.75;4.57;;;32.60;1.00;;;;;;7392083;19;20044;-71
2023/07/11 11:09:14;;;;;;;7.40;5.13;;;33.10;1.00;;;;;;7389521;19;20093;-71
2023/07/11 11:11:53;;;;;;;7.43;5.18;;;32.90;1.00;;;;;;7392928;19;20026;-72
2023/07/11 11:14:34;;;;;;;10.05;5.05;;;33.70;1.00;;;;;;7390460;19;20014;-72
2023/07/11 11:17:20;;;;;;;7.68;4.57;;;33.70;1.00;;;;;;7391785;19;20078;-71
2023/07/11 11:20:03;;;;;;;7.28;5.03;;;34.10;1.00;;;;;;7390505;19;20018;-71
2023/07/11 11:22:42;;;;;;;7.63;5.05;;;33.50;1.00;;;;;;7391948;19;20010;-72
2023/07/11 11:25:22;;;;;;;12.50;5.75;;;34.10;1.00;;;;;;7389768;19;20010;-71
2023/07/11 11:28:09;;;;;;;7.03;4.80;;;34.10;1.00;;;;;;7391809;19;20018;-72
2023/07/11 11:30:52;;;;;;;7.15;4.85;;;33.90;1.00;;;;;;7389713;19;20029;-71
2023/07/11 11:33:38;;;;;;;8.43;4.80;;;33.90;1.00;;;;;;7390821;19;20475;-71
2023/07/11 11:36:20;;;;;;;8.93;4.95;;;33.60;1.00;;;;;;7391219;19;20479;-71
2023/07/11 11:39:06;;;;;;;9.57;5.18;;;33.50;1.00;;;;;;7391215;19;20021;-70
2023/07/11 11:41:39;;;;;;;6.68;4.82;;;33.90;1.00;;;;;;7387504;19;20392;-70
2023/07/11 11:44:17;;;;;;;6.18;4.63;;;33.70;1.00;;;;;;7390807;19;20131;-71
2023/07/11 11:46:52;;;;;;;6.25;4.93;;;33.90;1.00;;;;;;7394546;19;20006;-71
2023/07/11 11:49:29;;;;;;;7.38;5.13;;;34.10;1.00;;;;;;7389368;19;20010;-71
2023/07/11 11:52:02;;;;;;;8.13;4.60;;;34.00;1.00;;;;;;7390853;19;20006;-71
2023/07/11 11:54:38;;;;;;;6.85;4.38;;;34.10;1.00;;;;;;7390413;19;20026;-72
2023/07/11 11:57:08;;;;;;;8.30;5.38;;;33.80;1.00;;;;;;7390916;19;20014;-71
2023/07/11 11:59:40;;;;;;;7.47;4.93;;;34.00;1.00;;;;;;7390483;19;20031;-71
2023/07/11 12:02:15;;;;;;;9.05;5.03;;;34.10;1.00;;;;;;7390469;19;20365;-72
2023/07/11 12:05:17;;;;;;;6.80;5.50;;;34.00;1.00;;;;;;7389802;19;20042;-70
2023/07/11 12:08:08;;;;;;;8.00;5.15;;;34.10;1.00;;;;;;7390099;19;20365;-71
2023/07/11 12:10:38;;;;;;;8.55;4.88;;;34.20;1.00;;;;;;7389280;19;20015;-70
2023/07/11 12:13:32;;;;;;;8.35;5.15;;;34.30;1.00;;;;;;7387777;19;20015;-72
2023/07/11 12:16:08;;;;;;;7.68;5.30;;;34.60;1.00;;;;;;7389996;19;20034;-70
2023/07/11 12:18:52;;;;;;;11.57;5.63;;;34.50;1.00;;;;;;7389967;19;20038;-70
2023/07/11 12:21:43;;;;;;;;;;;34.20;1.00;;;;;;7388118;19;20092;-71
2023/07/11 12:24:25;;;;;;;5.65;4.85;;;34.30;1.00;;;;;;7389078;19;19931;-72
2023/07/11 12:27:27;;;;;;;7.90;4.95;;;34.30;1.00;;;;;;7386944;19;20022;-72
2023/07/11 12:29:58;;;;;;;6.88;5.38;;;33.90;1.00;;;;;;7385795;19;20428;-72
2023/07/11 12:32:42;;;;;;;7.78;5.05;;;33.50;1.00;;;;;;7389459;19;20074;-72
2023/07/11 12:35:19;;;;;;;5.40;4.90;;;33.30;1.00;;;;;;7389002;19;20136;-71
2023/07/11 12:38:08;;;;;;;7.32;5.25;;;34.00;1.00;;;;;;7389634;19;20034;-72
2023/07/11 12:40:47;;;;;;;6.95;5.72;;;34.40;1.00;;;;;;7388511;19;20386;-71
2023/07/11 12:43:20;;;;;;;7.82;4.85;;;33.70;1.00;;;;;;7388916;19;20482;-71
2023/07/11 12:45:54;;;;;;;10.43;5.28;;;34.30;1.00;;;;;;7392114;19;20014;-70
2023/07/11 12:48:28;;;;;;;5.10;4.60;;;34.70;1.00;;;;;;7388107;19;20018;-72
2023/07/11 12:51:00;;;;;;;7.25;4.68;;;34.80;1.00;;;;;;7387121;19;20011;-72
2023/07/11 12:53:34;;;;;;;8.20;4.88;;;34.40;1.00;;;;;;7388098;19;20010;-72
2023/07/11 12:56:14;;;;;;;6.05;4.80;;;34.70;1.00;;;;;;7389046;19;20348;-71
2023/07/11 12:58:44;;;;;;;5.65;5.00;;;34.50;1.00;;;;;;7388664;19;20534;-72
2023/07/11 13:01:18;;;;;;;7.35;5.00;;;34.50;1.00;;;;;;7387377;19;20470;-71
2023/07/11 13:03:48;;;;;;;7.65;5.05;;;34.40;1.00;;;;;;7388087;19;20074;-71
2023/07/11 13:06:26;;;;;;;7.00;4.88;;;34.60;1.00;;;;;;7389063;19;20015;-73
2023/07/11 13:08:58;;;;;;;8.98;5.00;;;35.00;1.00;;;;;;7388473;19;20078;-72
2023/07/11 13:11:32;;;;;;;7.50;4.97;;;34.40;1.00;;;;;;7386692;19;20023;-73
2023/07/11 13:14:04;;;;;;;7.05;4.75;;;34.20;1.00;;;;;;7388493;19;20050;-70
2023/07/11 13:16:39;;;;;;;6.35;5.20;;;34.70;1.00;;;;;;7388807;19;20010;-72
2023/07/11 13:19:15;;;;;;;8.45;4.88;;;35.00;1.00;;;;;;7388456;19;20317;-72
2023/07/11 13:21:46;;;;;;;7.95;5.25;;;34.60;1.00;;;;;;7388107;19;20099;-71
2023/07/11 13:24:30;;;;;;;8.40;5.57;;;35.20;1.00;;;;;;7387845;19;20019;-72
2023/07/11 13:27:07;;;;;;;8.73;5.53;;;34.80;1.00;;;;;;7388363;19;20039;-72